createdAt,value
2023-04-02T00:03:10.865Z,94867.00
2023-04-02T00:08:41.175Z,94868.00
2023-04-02T00:14:30.908Z,94871.00
2023-04-02T00:20:09.131Z,94869.00
2023-04-02T00:25:43.263Z,94874.00
2023-04-02T00:31:11.490Z,94875.00
2023-04-02T00:36:39.609Z,94874.00
2023-04-02T00:42:07.753Z,94874.00
2023-04-02T00:47:40.077Z,94883.00
2023-04-02T00:53:25.161Z,94882.00
2023-04-02T00:58:56.170Z,94878.00
2023-04-02T01:04:34.548Z,94887.00
2023-04-02T01:10:51.274Z,94880.00
2023-04-02T01:16:31.345Z,94891.00
2023-04-02T01:22:20.773Z,94893.00
2023-04-02T01:27:59.507Z,94898.00
2023-04-02T01:33:34.516Z,94884.00
2023-04-02T01:39:37.260Z,94906.00
2023-04-02T01:45:14.196Z,94908.00
2023-04-02T01:50:45.543Z,94906.00
2023-04-02T01:56:14.682Z,94913.00
2023-04-02T02:02:04.918Z,94908.00
2023-04-02T02:07:34.950Z,94928.00
2023-04-02T02:13:04.230Z,94921.00
2023-04-02T02:18:32.618Z,94933.00
2023-04-02T02:24:01.171Z,94930.00
2023-04-02T02:29:38.405Z,94948.00
2023-04-02T02:35:27.163Z,94955.00
2023-04-02T02:41:02.374Z,94941.00
2023-04-02T02:46:31.154Z,94946.00
2023-04-02T02:52:09.140Z,94958.00
2023-04-02T02:58:04.750Z,94952.00
2023-04-02T03:03:41.564Z,94958.00
2023-04-02T03:09:30.522Z,94958.00
2023-04-02T03:15:00.923Z,94968.00
2023-04-02T03:20:58.905Z,94979.00
2023-04-02T03:26:55.628Z,94977.00
2023-04-02T03:32:33.160Z,94980.00
2023-04-02T03:38:26.734Z,94986.00
2023-04-02T03:43:59.720Z,94986.00
2023-04-02T03:49:43.249Z,94989.00
2023-04-02T03:55:19.386Z,95001.00
2023-04-02T04:01:08.736Z,94998.00
2023-04-02T04:06:43.707Z,95008.00
2023-04-02T04:12:23.552Z,95017.00
2023-04-02T04:18:47.751Z,95017.00
2023-04-02T04:24:22.946Z,95020.00
2023-04-02T04:30:30.105Z,95026.00
2023-04-02T04:36:00.686Z,95042.00
2023-04-02T04:41:37.918Z,95044.00
2023-04-02T04:47:32.377Z,95053.00
2023-04-02T04:53:15.972Z,95062.00
2023-04-02T04:58:53.666Z,95069.00
2023-04-02T05:04:42.071Z,95083.00
2023-04-02T05:10:25.756Z,95076.00
2023-04-02T05:16:38.354Z,95079.00
2023-04-02T05:22:22.331Z,95100.00
2023-04-02T05:27:58.121Z,95099.00
2023-04-02T05:33:31.445Z,95108.00
2023-04-02T05:39:02.921Z,95107.00
2023-04-02T05:44:49.071Z,95120.00
2023-04-02T05:50:27.379Z,95121.00
2023-04-02T05:56:21.065Z,95128.00
2023-04-02T06:02:36.774Z,95132.00
2023-04-02T06:08:26.087Z,95142.00
2023-04-02T06:13:54.186Z,95138.00
2023-04-02T06:19:32.363Z,95149.00
2023-04-02T06:25:13.920Z,95156.00
2023-04-02T06:30:45.521Z,95145.00
2023-04-02T06:36:17.477Z,95155.00
2023-04-02T06:41:46.766Z,95179.00
2023-04-02T06:47:52.783Z,95173.00
2023-04-02T06:53:47.551Z,95190.00
2023-04-02T06:59:20.447Z,95190.00
2023-04-02T07:04:56.548Z,95203.00
2023-04-02T07:10:29.152Z,95212.00
2023-04-02T07:15:59.071Z,95210.00
2023-04-02T07:21:27.874Z,95228.00
2023-04-02T07:26:56.810Z,95226.00
2023-04-02T07:32:25.275Z,95221.00
2023-04-02T07:37:53.112Z,95219.00
2023-04-02T07:43:27.984Z,95242.00
2023-04-02T07:48:56.183Z,95236.00
2023-04-02T07:54:27.199Z,95249.00
2023-04-02T07:59:56.659Z,95253.00
2023-04-02T08:05:26.440Z,95253.00
2023-04-02T08:10:55.558Z,95259.00
2023-04-02T08:16:25.394Z,95279.00
2023-04-02T08:21:54.732Z,95270.00
2023-04-02T08:27:24.549Z,95277.00
2023-04-02T08:32:53.510Z,95279.00
2023-04-02T08:38:31.112Z,95286.00
2023-04-02T08:45:23.712Z,95286.00
2023-04-02T08:50:59.008Z,95300.00
2023-04-02T08:56:42.127Z,95299.00
2023-04-02T09:02:34.131Z,95306.00
2023-04-02T09:08:06.202Z,95308.00
2023-04-02T09:13:41.453Z,95306.00
2023-04-02T09:19:23.415Z,95319.00
2023-04-02T09:25:01.048Z,95323.00
2023-04-02T09:31:02.185Z,95342.00
2023-04-02T09:36:40.485Z,95338.00
2023-04-02T09:42:31.215Z,95349.00
2023-04-02T09:47:59.282Z,95348.00
2023-04-02T09:53:35.763Z,95348.00
2023-04-02T09:59:18.750Z,95345.00
2023-04-02T10:04:49.771Z,95352.00
2023-04-02T10:10:34.051Z,95366.00
2023-04-02T10:16:16.771Z,95366.00
2023-04-02T10:21:46.162Z,95375.00
2023-04-02T10:27:33.550Z,95370.00
2023-04-02T10:33:18.391Z,95356.00
2023-04-02T10:39:12.392Z,95370.00
2023-04-02T10:45:02.253Z,95369.00
2023-04-02T10:51:01.685Z,95371.00
2023-04-02T10:56:40.744Z,95377.00
2023-04-02T11:02:32.033Z,95380.00
2023-04-02T11:08:24.169Z,95379.00
2023-04-02T11:14:11.460Z,95375.00
2023-04-02T11:19:39.669Z,95386.00
2023-04-02T11:25:23.169Z,95387.00
2023-04-02T11:30:51.479Z,95389.00
2023-04-02T11:36:50.168Z,95400.00
2023-04-02T11:42:26.760Z,95415.00
2023-04-02T11:48:08.495Z,95415.00
2023-04-02T11:53:36.868Z,95420.00
2023-04-02T11:59:21.500Z,95417.00
2023-04-02T12:05:26.626Z,95420.00
2023-04-02T12:10:58.914Z,95426.00
2023-04-02T12:16:32.668Z,95432.00
2023-04-02T12:22:00.637Z,95428.00
2023-04-02T12:27:30.390Z,95440.00
2023-04-02T12:33:14.854Z,95436.00
2023-04-02T12:38:54.294Z,95445.00
2023-04-02T12:44:25.220Z,95452.00
2023-04-02T12:49:54.723Z,95461.00
2023-04-02T12:55:26.353Z,95469.00
2023-04-02T13:01:21.184Z,95479.00
2023-04-02T13:06:58.473Z,95477.00
2023-04-02T13:12:39.606Z,95479.00
2023-04-02T13:18:13.602Z,95479.00
2023-04-02T13:23:41.939Z,95482.00
2023-04-02T13:29:09.825Z,95484.00
2023-04-02T13:34:38.158Z,95484.00
2023-04-02T13:40:08.590Z,95493.00
2023-04-02T13:45:38.624Z,95483.00
2023-04-02T13:51:06.785Z,95486.00
2023-04-02T13:56:34.672Z,95477.00
2023-04-02T14:02:12.844Z,95487.00
2023-04-02T14:08:23.379Z,95487.00
2023-04-02T14:14:17.435Z,95502.00
2023-04-02T14:20:09.384Z,95505.00
2023-04-02T14:26:20.641Z,95524.00
2023-04-02T14:31:59.168Z,95517.00
2023-04-02T14:38:11.600Z,95544.00
2023-04-02T14:43:53.381Z,95539.00
2023-04-02T14:49:40.008Z,95541.00
2023-04-02T14:55:38.136Z,95541.00
2023-04-02T15:01:25.849Z,95535.00
2023-04-02T15:07:03.594Z,95550.00
2023-04-02T15:12:37.256Z,95551.00
2023-04-02T15:18:10.716Z,95556.00
2023-04-02T15:24:15.414Z,95568.00
2023-04-02T15:30:09.865Z,95564.00
2023-04-02T15:36:35.405Z,95565.00
2023-04-02T15:42:24.917Z,95567.00
2023-04-02T15:48:15.010Z,95581.00
2023-04-02T15:54:03.862Z,95580.00
2023-04-02T15:59:55.655Z,95598.00
2023-04-02T16:05:40.418Z,95605.00
2023-04-02T16:11:16.034Z,95607.00
2023-04-02T16:16:48.326Z,95618.00
2023-04-02T16:22:29.594Z,95633.00
2023-04-02T16:28:33.377Z,95642.00
2023-04-02T16:34:23.206Z,95651.00
2023-04-02T16:40:19.573Z,95656.00
2023-04-02T16:46:20.342Z,95665.00
2023-04-02T16:52:28.804Z,95684.00
2023-04-02T16:58:45.953Z,95690.00
2023-04-02T17:04:37.134Z,95685.00
2023-04-02T17:10:30.178Z,95697.00
2023-04-02T17:16:45.895Z,95710.00
2023-04-02T17:22:19.669Z,95727.00
2023-04-02T17:27:53.534Z,95739.00
2023-04-02T17:33:28.619Z,95743.00
2023-04-02T17:39:50.490Z,95758.00
2023-04-02T17:45:42.305Z,95766.00
2023-04-02T17:51:30.071Z,95781.00
2023-04-02T17:57:51.746Z,95781.00
2023-04-02T18:04:12.568Z,95801.00
2023-04-02T18:10:40.494Z,95815.00
2023-04-02T18:16:40.861Z,95828.00
2023-04-02T18:22:29.528Z,95828.00
2023-04-02T18:28:06.850Z,95846.00
2023-04-02T18:34:14.062Z,95852.00
2023-04-02T18:40:14.176Z,95867.00
2023-04-02T18:46:46.077Z,95874.00
2023-04-02T18:52:18.233Z,95868.00
2023-04-02T18:57:50.468Z,95883.00
2023-04-02T19:03:37.258Z,95898.00
2023-04-02T19:09:24.049Z,95907.00
2023-04-02T19:14:52.713Z,95912.00
2023-04-02T19:21:15.228Z,95925.00
2023-04-02T19:27:05.382Z,95928.00
2023-04-02T19:32:58.739Z,95941.00
2023-04-02T19:38:57.847Z,95954.00
2023-04-02T19:44:25.921Z,95970.00
2023-04-02T19:49:54.787Z,95974.00
2023-04-02T19:55:22.667Z,95977.00
2023-04-02T20:00:50.454Z,95978.00
2023-04-02T20:06:18.844Z,95984.00
2023-04-02T20:11:46.902Z,95992.00
2023-04-02T20:17:14.755Z,96003.00
2023-04-02T20:22:42.965Z,96001.00
2023-04-02T20:28:13.310Z,96004.00
2023-04-02T20:33:41.604Z,96012.00
2023-04-02T20:39:10.844Z,96030.00
2023-04-02T20:44:39.165Z,96034.00
2023-04-02T20:50:07.744Z,96036.00
2023-04-02T20:55:35.946Z,96051.00
2023-04-02T21:01:28.596Z,96051.00
2023-04-02T21:06:57.624Z,96062.00
2023-04-02T21:12:25.779Z,96079.00
2023-04-02T21:17:53.952Z,96080.00
2023-04-02T21:23:21.648Z,96077.00
2023-04-02T21:28:50.040Z,96092.00
2023-04-02T21:34:18.942Z,96089.00
2023-04-02T21:39:47.389Z,96100.00
2023-04-02T21:45:16.206Z,96104.00
2023-04-02T21:50:44.998Z,96110.00
2023-04-02T21:56:22.751Z,96106.00
2023-04-02T22:01:52.117Z,96115.00
2023-04-02T22:07:21.237Z,96113.00
2023-04-02T22:12:51.730Z,96113.00
2023-04-02T22:18:21.719Z,96109.00
2023-04-02T22:23:50.502Z,96123.00
2023-04-02T22:29:21.490Z,96131.00
2023-04-02T22:34:49.820Z,96132.00
2023-04-02T22:40:27.230Z,96137.00
2023-04-02T22:46:04.471Z,96132.00
2023-04-02T22:51:37.856Z,96126.00
2023-04-02T22:57:12.381Z,96130.00
2023-04-02T23:02:40.578Z,96138.00
2023-04-02T23:08:09.574Z,96137.00
2023-04-02T23:13:48.983Z,96135.00
2023-04-02T23:19:18.817Z,96139.00
2023-04-02T23:24:54.555Z,96140.00
2023-04-02T23:30:23.697Z,96129.00
2023-04-02T23:35:58.799Z,96137.00
2023-04-02T23:41:27.803Z,96130.00
2023-04-02T23:46:59.771Z,96126.00
2023-04-02T23:52:27.944Z,96131.00
2023-04-02T23:57:56.135Z,96137.00
